sensor_id;sensor_type;location;lat;lon;timestamp;temperature;humidity
18141;DHT22;9196;49.194;12.526;2023-08-01T00:01:29;17.40;99.90
18141;DHT22;9196;49.194;12.526;2023-08-01T00:03:56;17.50;99.90
18141;DHT22;9196;49.194;12.526;2023-08-01T00:06:22;17.50;99.90
18141;DHT22;9196;49.194;12.526;2023-08-01T00:08:50;17.50;99.90
18141;DHT22;9196;49.194;12.526;2023-08-01T00:11:18;17.50;99.90
18141;DHT22;9196;49.194;12.526;2023-08-01T00:13:45;17.50;99.90
18141;DHT22;9196;49.194;12.526;2023-08-01T00:16:12;17.40;99.90
18141;DHT22;9196;49.194;12.526;2023-08-01T00:18:38;17.50;99.90
18141;DHT22;9196;49.194;12.526;2023-08-01T00:21:05;17.50;99.90
18141;DHT22;9196;49.194;12.526;2023-08-01T00:23:35;17.40;99.90
18141;DHT22;9196;49.194;12.526;2023-08-01T00:26:02;17.50;99.90
18141;DHT22;9196;49.194;12.526;2023-08-01T00:28:30;17.60;99.90
18141;DHT22;9196;49.194;12.526;2023-08-01T00:31:04;17.60;99.90
18141;DHT22;9196;49.194;12.526;2023-08-01T00:33:32;17.70;99.90
18141;DHT22;9196;49.194;12.526;2023-08-01T00:35:59;17.70;99.90
18141;DHT22;9196;49.194;12.526;2023-08-01T00:38:25;17.80;99.90
18141;DHT22;9196;49.194;12.526;2023-08-01T00:40:52;17.80;99.90
18141;DHT22;9196;49.194;12.526;2023-08-01T00:43:19;17.90;99.90
18141;DHT22;9196;49.194;12.526;2023-08-01T00:45:47;17.90;99.90
18141;DHT22;9196;49.194;12.526;2023-08-01T00:48:15;17.80;99.90
18141;DHT22;9196;49.194;12.526;2023-08-01T00:50:44;17.80;99.90
18141;DHT22;9196;49.194;12.526;2023-08-01T00:53:12;17.90;99.90
18141;DHT22;9196;49.194;12.526;2023-08-01T00:55:39;17.80;99.90
18141;DHT22;9196;49.194;12.526;2023-08-01T00:58:06;17.80;99.90
18141;DHT22;9196;49.194;12.526;2023-08-01T01:00:32;17.80;99.90
18141;DHT22;9196;49.194;12.526;2023-08-01T01:03:01;17.90;99.90
18141;DHT22;9196;49.194;12.526;2023-08-01T01:05:32;17.90;99.90
18141;DHT22;9196;49.194;12.526;2023-08-01T01:08:00;18.00;99.90
18141;DHT22;9196;49.194;12.526;2023-08-01T01:10:28;17.90;99.90
18141;DHT22;9196;49.194;12.526;2023-08-01T01:12:55;17.80;99.90
18141;DHT22;9196;49.194;12.526;2023-08-01T01:15:22;17.80;99.90
18141;DHT22;9196;49.194;12.526;2023-08-01T01:17:49;17.80;99.90
18141;DHT22;9196;49.194;12.526;2023-08-01T01:20:22;17.90;99.90
18141;DHT22;9196;49.194;12.526;2023-08-01T01:22:51;17.90;99.90
18141;DHT22;9196;49.194;12.526;2023-08-01T01:25:18;17.90;99.90
18141;DHT22;9196;49.194;12.526;2023-08-01T01:27:46;17.90;99.90
18141;DHT22;9196;49.194;12.526;2023-08-01T01:30:13;17.90;99.90
18141;DHT22;9196;49.194;12.526;2023-08-01T01:32:40;17.90;99.90
18141;DHT22;9196;49.194;12.526;2023-08-01T01:35:07;17.90;99.90
18141;DHT22;9196;49.194;12.526;2023-08-01T01:37:34;17.90;99.90
18141;DHT22;9196;49.194;12.526;2023-08-01T01:40:03;17.90;99.90
18141;DHT22;9196;49.194;12.526;2023-08-01T01:42:29;18.00;99.90
18141;DHT22;9196;49.194;12.526;2023-08-01T01:44:56;18.10;99.90
18141;DHT22;9196;49.194;12.526;2023-08-01T01:47:23;18.00;99.90
18141;DHT22;9196;49.194;12.526;2023-08-01T01:49:50;18.00;99.90
18141;DHT22;9196;49.194;12.526;2023-08-01T01:52:16;18.00;99.90
18141;DHT22;9196;49.194;12.526;2023-08-01T01:54:43;17.90;99.90
18141;DHT22;9196;49.194;12.526;2023-08-01T01:57:11;17.90;99.90
18141;DHT22;9196;49.194;12.526;2023-08-01T01:59:38;17.90;99.90
18141;DHT22;9196;49.194;12.526;2023-08-01T02:02:05;17.80;99.90
18141;DHT22;9196;49.194;12.526;2023-08-01T02:04:32;17.80;99.90
18141;DHT22;9196;49.194;12.526;2023-08-01T02:06:59;17.70;99.90
18141;DHT22;9196;49.194;12.526;2023-08-01T02:09:26;17.70;99.90
18141;DHT22;9196;49.194;12.526;2023-08-01T02:11:52;17.70;99.90
18141;DHT22;9196;49.194;12.526;2023-08-01T02:14:20;17.70;99.90
18141;DHT22;9196;49.194;12.526;2023-08-01T02:16:47;17.80;99.90
18141;DHT22;9196;49.194;12.526;2023-08-01T02:19:14;17.80;99.90
18141;DHT22;9196;49.194;12.526;2023-08-01T02:21:41;17.80;99.90
18141;DHT22;9196;49.194;12.526;2023-08-01T02:24:07;17.80;99.90
18141;DHT22;9196;49.194;12.526;2023-08-01T02:26:34;17.70;99.90
18141;DHT22;9196;49.194;12.526;2023-08-01T02:29:01;17.70;99.90
18141;DHT22;9196;49.194;12.526;2023-08-01T02:31:29;17.70;99.90
18141;DHT22;9196;49.194;12.526;2023-08-01T02:33:56;17.70;99.90
18141;DHT22;9196;49.194;12.526;2023-08-01T02:36:22;17.70;99.90
18141;DHT22;9196;49.194;12.526;2023-08-01T02:38:49;17.50;99.90
18141;DHT22;9196;49.194;12.526;2023-08-01T02:41:16;17.30;99.90
18141;DHT22;9196;49.194;12.526;2023-08-01T02:43:42;17.30;99.90
18141;DHT22;9196;49.194;12.526;2023-08-01T02:46:09;17.30;99.90
18141;DHT22;9196;49.194;12.526;2023-08-01T02:48:37;17.30;99.90
18141;DHT22;9196;49.194;12.526;2023-08-01T02:51:04;17.30;99.90
18141;DHT22;9196;49.194;12.526;2023-08-01T02:53:34;17.40;99.90
18141;DHT22;9196;49.194;12.526;2023-08-01T02:56:01;17.40;99.90
18141;DHT22;9196;49.194;12.526;2023-08-01T02:58:28;17.40;99.90
18141;DHT22;9196;49.194;12.526;2023-08-01T03:00:55;17.40;99.90
18141;DHT22;9196;49.194;12.526;2023-08-01T03:03:22;17.40;99.90
18141;DHT22;9196;49.194;12.526;2023-08-01T03:05:50;17.40;99.90
18141;DHT22;9196;49.194;12.526;2023-08-01T03:08:17;17.40;99.90
18141;DHT22;9196;49.194;12.526;2023-08-01T03:10:44;17.40;99.90
18141;DHT22;9196;49.194;12.526;2023-08-01T03:13:11;17.30;99.90
18141;DHT22;9196;49.194;12.526;2023-08-01T03:15:38;17.30;99.90
18141;DHT22;9196;49.194;12.526;2023-08-01T03:18:04;17.20;99.90
18141;DHT22;9196;49.194;12.526;2023-08-01T03:20:31;17.30;99.90
18141;DHT22;9196;49.194;12.526;2023-08-01T03:22:59;17.20;99.90
18141;DHT22;9196;49.194;12.526;2023-08-01T03:25:26;17.20;99.90
18141;DHT22;9196;49.194;12.526;2023-08-01T03:27:53;17.10;99.90
18141;DHT22;9196;49.194;12.526;2023-08-01T03:30:20;17.20;99.90
18141;DHT22;9196;49.194;12.526;2023-08-01T03:32:47;17.20;99.90
18141;DHT22;9196;49.194;12.526;2023-08-01T03:35:14;17.20;99.90
18141;DHT22;9196;49.194;12.526;2023-08-01T03:37:41;17.20;99.90
18141;DHT22;9196;49.194;12.526;2023-08-01T03:40:09;17.30;99.90
18141;DHT22;9196;49.194;12.526;2023-08-01T03:42:36;17.30;99.90
18141;DHT22;9196;49.194;12.526;2023-08-01T03:45:04;17.30;99.90
18141;DHT22;9196;49.194;12.526;2023-08-01T03:47:31;17.40;99.90
18141;DHT22;9196;49.194;12.526;2023-08-01T03:49:58;17.40;99.90
18141;DHT22;9196;49.194;12.526;2023-08-01T03:52:25;17.40;99.90
18141;DHT22;9196;49.194;12.526;2023-08-01T03:54:54;17.40;99.90
18141;DHT22;9196;49.194;12.526;2023-08-01T03:57:22;17.40;99.90
18141;DHT22;9196;49.194;12.526;2023-08-01T03:59:49;17.40;99.90
18141;DHT22;9196;49.194;12.526;2023-08-01T04:02:15;17.40;99.90
18141;DHT22;9196;49.194;12.526;2023-08-01T04:04:42;17.40;99.90
18141;DHT22;9196;49.194;12.526;2023-08-01T04:07:09;17.30;99.90
18141;DHT22;9196;49.194;12.526;2023-08-01T04:09:36;17.30;99.90
18141;DHT22;9196;49.194;12.526;2023-08-01T04:12:04;17.30;99.90
18141;DHT22;9196;49.194;12.526;2023-08-01T04:14:33;17.30;99.90
18141;DHT22;9196;49.194;12.526;2023-08-01T04:17:00;17.30;99.90
18141;DHT22;9196;49.194;12.526;2023-08-01T04:19:27;17.30;99.90
18141;DHT22;9196;49.194;12.526;2023-08-01T04:21:54;17.30;99.90
18141;DHT22;9196;49.194;12.526;2023-08-01T04:24:21;17.30;99.90
18141;DHT22;9196;49.194;12.526;2023-08-01T04:26:50;17.30;99.90
18141;DHT22;9196;49.194;12.526;2023-08-01T04:29:17;17.20;99.90
18141;DHT22;9196;49.194;12.526;2023-08-01T04:31:45;17.20;99.90
18141;DHT22;9196;49.194;12.526;2023-08-01T04:34:12;17.20;99.90
18141;DHT22;9196;49.194;12.526;2023-08-01T04:36:39;17.30;99.90
18141;DHT22;9196;49.194;12.526;2023-08-01T04:39:05;17.30;99.90
18141;DHT22;9196;49.194;12.526;2023-08-01T04:41:32;17.40;99.90
18141;DHT22;9196;49.194;12.526;2023-08-01T04:43:59;17.40;99.90
18141;DHT22;9196;49.194;12.526;2023-08-01T04:46:26;17.50;99.90
18141;DHT22;9196;49.194;12.526;2023-08-01T04:48:54;17.50;99.90
18141;DHT22;9196;49.194;12.526;2023-08-01T04:51:21;17.50;99.90
18141;DHT22;9196;49.194;12.526;2023-08-01T04:53:48;17.40;99.90
18141;DHT22;9196;49.194;12.526;2023-08-01T04:56:15;17.30;99.90
18141;DHT22;9196;49.194;12.526;2023-08-01T04:58:42;17.20;99.90
18141;DHT22;9196;49.194;12.526;2023-08-01T05:01:08;17.10;99.90
18141;DHT22;9196;49.194;12.526;2023-08-01T05:03:35;17.10;99.90
18141;DHT22;9196;49.194;12.526;2023-08-01T05:06:03;17.10;99.90
18141;DHT22;9196;49.194;12.526;2023-08-01T05:08:30;17.10;99.90
18141;DHT22;9196;49.194;12.526;2023-08-01T05:10:57;17.00;99.90
18141;DHT22;9196;49.194;12.526;2023-08-01T05:13:23;17.00;99.90
18141;DHT22;9196;49.194;12.526;2023-08-01T05:15:50;17.00;99.90
18141;DHT22;9196;49.194;12.526;2023-08-01T05:18:17;17.00;99.90
18141;DHT22;9196;49.194;12.526;2023-08-01T05:20:44;17.00;99.90
18141;DHT22;9196;49.194;12.526;2023-08-01T05:23:12;16.90;99.90
18141;DHT22;9196;49.194;12.526;2023-08-01T05:25:39;16.90;99.90
18141;DHT22;9196;49.194;12.526;2023-08-01T05:28:06;16.70;99.90
18141;DHT22;9196;49.194;12.526;2023-08-01T05:30:33;16.60;99.90
18141;DHT22;9196;49.194;12.526;2023-08-01T05:32:59;16.60;99.90
18141;DHT22;9196;49.194;12.526;2023-08-01T05:35:26;16.60;99.90
18141;DHT22;9196;49.194;12.526;2023-08-01T05:37:53;16.60;99.90
18141;DHT22;9196;49.194;12.526;2023-08-01T05:40:21;16.60;99.90
18141;DHT22;9196;49.194;12.526;2023-08-01T05:42:48;16.60;99.90
18141;DHT22;9196;49.194;12.526;2023-08-01T05:45:15;16.60;99.90
18141;DHT22;9196;49.194;12.526;2023-08-01T05:47:42;16.60;99.90
18141;DHT22;9196;49.194;12.526;2023-08-01T05:50:09;16.60;99.90
18141;DHT22;9196;49.194;12.526;2023-08-01T05:52:36;16.60;99.90
18141;DHT22;9196;49.194;12.526;2023-08-01T05:55:03;16.60;99.90
18141;DHT22;9196;49.194;12.526;2023-08-01T05:57:31;16.60;99.90
18141;DHT22;9196;49.194;12.526;2023-08-01T05:59:58;16.60;99.90
18141;DHT22;9196;49.194;12.526;2023-08-01T06:02:25;16.60;99.90
18141;DHT22;9196;49.194;12.526;2023-08-01T06:04:52;16.60;99.90
18141;DHT22;9196;49.194;12.526;2023-08-01T06:07:19;16.60;99.90
18141;DHT22;9196;49.194;12.526;2023-08-01T06:09:48;16.60;99.90
18141;DHT22;9196;49.194;12.526;2023-08-01T06:12:16;16.60;99.90
18141;DHT22;9196;49.194;12.526;2023-08-01T06:14:46;16.60;99.90
18141;DHT22;9196;49.194;12.526;2023-08-01T06:17:12;16.60;99.90
18141;DHT22;9196;49.194;12.526;2023-08-01T06:19:39;16.60;99.90
18141;DHT22;9196;49.194;12.526;2023-08-01T06:22:06;16.60;99.90
18141;DHT22;9196;49.194;12.526;2023-08-01T06:24:33;16.60;99.90
18141;DHT22;9196;49.194;12.526;2023-08-01T06:27:00;16.60;99.90
18141;DHT22;9196;49.194;12.526;2023-08-01T06:29:26;16.60;99.90
18141;DHT22;9196;49.194;12.526;2023-08-01T06:31:54;16.60;99.90
18141;DHT22;9196;49.194;12.526;2023-08-01T06:34:21;16.60;99.90
18141;DHT22;9196;49.194;12.526;2023-08-01T06:36:48;16.60;99.90
18141;DHT22;9196;49.194;12.526;2023-08-01T06:39:15;16.70;99.90
18141;DHT22;9196;49.194;12.526;2023-08-01T06:41:41;16.70;99.90
18141;DHT22;9196;49.194;12.526;2023-08-01T06:44:08;16.70;99.90
18141;DHT22;9196;49.194;12.526;2023-08-01T06:46:35;16.80;99.90
18141;DHT22;9196;49.194;12.526;2023-08-01T06:49:03;16.80;99.90
18141;DHT22;9196;49.194;12.526;2023-08-01T06:51:30;16.80;99.90
18141;DHT22;9196;49.194;12.526;2023-08-01T06:53:57;16.80;99.90
18141;DHT22;9196;49.194;12.526;2023-08-01T06:56:23;16.80;99.90
18141;DHT22;9196;49.194;12.526;2023-08-01T06:58:50;16.80;99.90
18141;DHT22;9196;49.194;12.526;2023-08-01T07:01:17;16.80;99.90
18141;DHT22;9196;49.194;12.526;2023-08-01T07:03:44;16.90;99.90
18141;DHT22;9196;49.194;12.526;2023-08-01T07:06:13;16.80;99.90
18141;DHT22;9196;49.194;12.526;2023-08-01T07:08:40;16.80;99.90
18141;DHT22;9196;49.194;12.526;2023-08-01T07:11:06;16.90;99.90
18141;DHT22;9196;49.194;12.526;2023-08-01T07:13:33;16.90;99.90
18141;DHT22;9196;49.194;12.526;2023-08-01T07:16:14;17.00;99.90
18141;DHT22;9196;49.194;12.526;2023-08-01T07:18:41;17.00;99.90
18141;DHT22;9196;49.194;12.526;2023-08-01T07:21:09;17.00;99.90
18141;DHT22;9196;49.194;12.526;2023-08-01T07:23:37;16.90;99.90
18141;DHT22;9196;49.194;12.526;2023-08-01T07:26:04;16.80;99.90
18141;DHT22;9196;49.194;12.526;2023-08-01T07:28:31;16.80;99.90
18141;DHT22;9196;49.194;12.526;2023-08-01T07:30:58;16.90;99.90
18141;DHT22;9196;49.194;12.526;2023-08-01T07:33:26;16.80;99.90
18141;DHT22;9196;49.194;12.526;2023-08-01T07:35:52;16.90;99.90
18141;DHT22;9196;49.194;12.526;2023-08-01T07:38:19;17.00;99.90
18141;DHT22;9196;49.194;12.526;2023-08-01T07:40:47;16.90;99.90
18141;DHT22;9196;49.194;12.526;2023-08-01T07:43:14;17.00;99.90
18141;DHT22;9196;49.194;12.526;2023-08-01T07:45:41;17.10;99.90
18141;DHT22;9196;49.194;12.526;2023-08-01T07:48:08;17.10;99.90
18141;DHT22;9196;49.194;12.526;2023-08-01T07:50:34;17.10;99.90
18141;DHT22;9196;49.194;12.526;2023-08-01T07:53:01;17.10;99.90
18141;DHT22;9196;49.194;12.526;2023-08-01T07:55:28;17.00;99.90
18141;DHT22;9196;49.194;12.526;2023-08-01T07:57:56;17.00;99.90
18141;DHT22;9196;49.194;12.526;2023-08-01T08:00:23;17.10;99.90
18141;DHT22;9196;49.194;12.526;2023-08-01T08:02:49;17.20;99.90
18141;DHT22;9196;49.194;12.526;2023-08-01T08:05:16;17.40;99.90
18141;DHT22;9196;49.194;12.526;2023-08-01T08:07:43;17.50;99.90
18141;DHT22;9196;49.194;12.526;2023-08-01T08:10:10;17.40;99.90
18141;DHT22;9196;49.194;12.526;2023-08-01T08:12:37;17.40;99.90
18141;DHT22;9196;49.194;12.526;2023-08-01T08:15:06;17.50;99.90
18141;DHT22;9196;49.194;12.526;2023-08-01T08:17:33;17.50;99.90
18141;DHT22;9196;49.194;12.526;2023-08-01T08:20:00;17.50;99.90
18141;DHT22;9196;49.194;12.526;2023-08-01T08:22:27;17.50;99.90
18141;DHT22;9196;49.194;12.526;2023-08-01T08:24:53;17.60;99.90
18141;DHT22;9196;49.194;12.526;2023-08-01T08:27:20;17.70;99.90
18141;DHT22;9196;49.194;12.526;2023-08-01T08:29:47;17.60;99.90
18141;DHT22;9196;49.194;12.526;2023-08-01T08:32:15;17.70;99.90
18141;DHT22;9196;49.194;12.526;2023-08-01T08:34:42;17.70;99.90
18141;DHT22;9196;49.194;12.526;2023-08-01T08:37:08;17.70;99.90
18141;DHT22;9196;49.194;12.526;2023-08-01T08:39:35;17.70;99.90
18141;DHT22;9196;49.194;12.526;2023-08-01T08:42:02;17.70;99.90
18141;DHT22;9196;49.194;12.526;2023-08-01T08:44:31;17.70;99.90
18141;DHT22;9196;49.194;12.526;2023-08-01T08:47:03;17.60;99.90
18141;DHT22;9196;49.194;12.526;2023-08-01T08:49:32;17.60;99.90
18141;DHT22;9196;49.194;12.526;2023-08-01T08:51:59;17.50;99.90
18141;DHT22;9196;49.194;12.526;2023-08-01T08:54:26;17.60;99.90
18141;DHT22;9196;49.194;12.526;2023-08-01T08:56:53;17.60;99.90
18141;DHT22;9196;49.194;12.526;2023-08-01T08:59:21;17.70;99.90
18141;DHT22;9196;49.194;12.526;2023-08-01T09:01:48;17.80;99.90
18141;DHT22;9196;49.194;12.526;2023-08-01T09:04:15;17.80;99.90
18141;DHT22;9196;49.194;12.526;2023-08-01T09:06:46;17.90;99.90
18141;DHT22;9196;49.194;12.526;2023-08-01T09:09:13;17.80;99.90
18141;DHT22;9196;49.194;12.526;2023-08-01T09:11:46;17.80;99.90
18141;DHT22;9196;49.194;12.526;2023-08-01T09:14:13;17.70;99.90
18141;DHT22;9196;49.194;12.526;2023-08-01T09:16:41;17.70;99.90
18141;DHT22;9196;49.194;12.526;2023-08-01T09:19:08;17.60;99.90
18141;DHT22;9196;49.194;12.526;2023-08-01T09:21:39;17.70;99.90
18141;DHT22;9196;49.194;12.526;2023-08-01T09:24:10;17.70;99.90
18141;DHT22;9196;49.194;12.526;2023-08-01T09:26:38;17.70;99.90
18141;DHT22;9196;49.194;12.526;2023-08-01T09:29:05;17.70;99.90
18141;DHT22;9196;49.194;12.526;2023-08-01T09:31:34;17.70;99.90
18141;DHT22;9196;49.194;12.526;2023-08-01T09:34:02;17.80;99.90
18141;DHT22;9196;49.194;12.526;2023-08-01T09:36:30;17.70;99.90
18141;DHT22;9196;49.194;12.526;2023-08-01T09:39:01;17.70;99.90
18141;DHT22;9196;49.194;12.526;2023-08-01T09:41:30;17.80;99.90
18141;DHT22;9196;49.194;12.526;2023-08-01T09:43:57;17.80;99.90
18141;DHT22;9196;49.194;12.526;2023-08-01T09:46:25;17.80;99.90
18141;DHT22;9196;49.194;12.526;2023-08-01T09:48:52;17.80;99.90
18141;DHT22;9196;49.194;12.526;2023-08-01T09:51:18;17.80;99.90
18141;DHT22;9196;49.194;12.526;2023-08-01T09:53:50;17.70;99.90
18141;DHT22;9196;49.194;12.526;2023-08-01T09:56:19;17.70;99.90
18141;DHT22;9196;49.194;12.526;2023-08-01T09:58:49;17.60;99.90
18141;DHT22;9196;49.194;12.526;2023-08-01T10:01:19;17.60;99.90
18141;DHT22;9196;49.194;12.526;2023-08-01T10:03:47;17.60;99.90
18141;DHT22;9196;49.194;12.526;2023-08-01T10:06:17;17.60;99.90
18141;DHT22;9196;49.194;12.526;2023-08-01T10:08:45;17.60;99.90
18141;DHT22;9196;49.194;12.526;2023-08-01T10:11:13;17.50;99.90
18141;DHT22;9196;49.194;12.526;2023-08-01T10:13:41;17.50;99.90
18141;DHT22;9196;49.194;12.526;2023-08-01T10:16:10;17.40;99.90
18141;DHT22;9196;49.194;12.526;2023-08-01T10:18:38;17.50;99.90
18141;DHT22;9196;49.194;12.526;2023-08-01T10:21:05;17.50;99.90
18141;DHT22;9196;49.194;12.526;2023-08-01T10:23:33;17.60;99.90
18141;DHT22;9196;49.194;12.526;2023-08-01T10:26:03;17.60;99.90
18141;DHT22;9196;49.194;12.526;2023-08-01T10:28:33;17.60;99.90
18141;DHT22;9196;49.194;12.526;2023-08-01T10:31:09;17.70;99.90
18141;DHT22;9196;49.194;12.526;2023-08-01T10:33:37;17.70;99.90
18141;DHT22;9196;49.194;12.526;2023-08-01T10:36:13;17.80;99.90
18141;DHT22;9196;49.194;12.526;2023-08-01T10:38:45;17.80;99.90
18141;DHT22;9196;49.194;12.526;2023-08-01T10:41:22;17.90;99.90
18141;DHT22;9196;49.194;12.526;2023-08-01T10:43:48;18.00;99.90
18141;DHT22;9196;49.194;12.526;2023-08-01T10:46:17;18.00;99.90
18141;DHT22;9196;49.194;12.526;2023-08-01T10:48:53;18.10;99.90
18141;DHT22;9196;49.194;12.526;2023-08-01T10:51:20;18.10;99.90
18141;DHT22;9196;49.194;12.526;2023-08-01T10:53:46;18.10;99.90
18141;DHT22;9196;49.194;12.526;2023-08-01T10:56:18;18.20;99.90
18141;DHT22;9196;49.194;12.526;2023-08-01T10:58:46;18.20;99.90
18141;DHT22;9196;49.194;12.526;2023-08-01T11:01:13;18.00;99.90
18141;DHT22;9196;49.194;12.526;2023-08-01T11:03:41;18.00;99.90
18141;DHT22;9196;49.194;12.526;2023-08-01T11:06:09;18.00;99.90
18141;DHT22;9196;49.194;12.526;2023-08-01T11:08:36;17.90;99.90
18141;DHT22;9196;49.194;12.526;2023-08-01T11:11:05;18.00;99.90
18141;DHT22;9196;49.194;12.526;2023-08-01T11:13:32;18.10;99.90
18141;DHT22;9196;49.194;12.526;2023-08-01T11:16:02;18.00;99.90
18141;DHT22;9196;49.194;12.526;2023-08-01T11:18:29;18.10;99.90
18141;DHT22;9196;49.194;12.526;2023-08-01T11:20:57;18.10;99.90
18141;DHT22;9196;49.194;12.526;2023-08-01T11:23:30;18.10;99.90
18141;DHT22;9196;49.194;12.526;2023-08-01T11:25:57;18.10;99.90
18141;DHT22;9196;49.194;12.526;2023-08-01T11:28:24;18.00;99.90
18141;DHT22;9196;49.194;12.526;2023-08-01T11:30:51;18.00;99.90
18141;DHT22;9196;49.194;12.526;2023-08-01T11:33:19;18.10;99.90
18141;DHT22;9196;49.194;12.526;2023-08-01T11:35:50;18.00;99.90
18141;DHT22;9196;49.194;12.526;2023-08-01T11:38:20;18.10;99.90
18141;DHT22;9196;49.194;12.526;2023-08-01T11:40:47;18.20;99.90
18141;DHT22;9196;49.194;12.526;2023-08-01T11:43:15;18.30;99.90
18141;DHT22;9196;49.194;12.526;2023-08-01T11:45:51;18.40;99.90
18141;DHT22;9196;49.194;12.526;2023-08-01T11:48:20;18.50;99.90
18141;DHT22;9196;49.194;12.526;2023-08-01T11:50:47;18.40;99.90
18141;DHT22;9196;49.194;12.526;2023-08-01T11:53:19;18.40;99.90
18141;DHT22;9196;49.194;12.526;2023-08-01T11:55:47;18.20;99.90
18141;DHT22;9196;49.194;12.526;2023-08-01T11:58:14;18.20;99.90
18141;DHT22;9196;49.194;12.526;2023-08-01T12:00:41;18.30;99.90
18141;DHT22;9196;49.194;12.526;2023-08-01T12:03:09;18.30;99.90
18141;DHT22;9196;49.194;12.526;2023-08-01T12:05:39;18.30;99.90
18141;DHT22;9196;49.194;12.526;2023-08-01T12:08:12;18.20;99.90
18141;DHT22;9196;49.194;12.526;2023-08-01T12:10:41;18.10;99.90
18141;DHT22;9196;49.194;12.526;2023-08-01T12:13:19;18.00;99.90
18141;DHT22;9196;49.194;12.526;2023-08-01T12:15:47;18.00;99.90
18141;DHT22;9196;49.194;12.526;2023-08-01T12:18:20;18.00;99.90
18141;DHT22;9196;49.194;12.526;2023-08-01T12:20:47;18.00;99.90
18141;DHT22;9196;49.194;12.526;2023-08-01T12:23:14;18.00;99.90
18141;DHT22;9196;49.194;12.526;2023-08-01T12:25:42;18.20;99.90
18141;DHT22;9196;49.194;12.526;2023-08-01T12:28:08;18.10;99.90
18141;DHT22;9196;49.194;12.526;2023-08-01T12:30:35;18.30;99.90
18141;DHT22;9196;49.194;12.526;2023-08-01T12:33:02;18.30;99.90
18141;DHT22;9196;49.194;12.526;2023-08-01T12:35:29;18.60;99.90
18141;DHT22;9196;49.194;12.526;2023-08-01T12:37:56;18.60;99.90
18141;DHT22;9196;49.194;12.526;2023-08-01T12:40:23;18.50;99.90
18141;DHT22;9196;49.194;12.526;2023-08-01T12:42:51;18.40;99.90
18141;DHT22;9196;49.194;12.526;2023-08-01T12:45:18;18.40;99.90
18141;DHT22;9196;49.194;12.526;2023-08-01T12:47:46;18.40;99.90
18141;DHT22;9196;49.194;12.526;2023-08-01T12:50:13;18.40;99.90
18141;DHT22;9196;49.194;12.526;2023-08-01T12:52:39;18.30;99.90
18141;DHT22;9196;49.194;12.526;2023-08-01T12:55:07;18.20;99.90
18141;DHT22;9196;49.194;12.526;2023-08-01T12:57:34;18.20;99.90
18141;DHT22;9196;49.194;12.526;2023-08-01T13:00:02;18.30;99.90
18141;DHT22;9196;49.194;12.526;2023-08-01T13:02:29;18.40;99.90
18141;DHT22;9196;49.194;12.526;2023-08-01T13:04:56;18.40;99.90
18141;DHT22;9196;49.194;12.526;2023-08-01T13:07:23;18.40;99.90
18141;DHT22;9196;49.194;12.526;2023-08-01T13:09:50;18.40;99.90
18141;DHT22;9196;49.194;12.526;2023-08-01T13:12:17;18.40;99.90
18141;DHT22;9196;49.194;12.526;2023-08-01T13:14:44;18.50;99.90
18141;DHT22;9196;49.194;12.526;2023-08-01T13:17:12;18.60;99.90
18141;DHT22;9196;49.194;12.526;2023-08-01T13:19:38;18.70;99.90
18141;DHT22;9196;49.194;12.526;2023-08-01T13:22:05;18.80;99.90
18141;DHT22;9196;49.194;12.526;2023-08-01T13:24:32;19.00;99.90
18141;DHT22;9196;49.194;12.526;2023-08-01T13:26:59;19.10;99.90
18141;DHT22;9196;49.194;12.526;2023-08-01T13:29:26;19.10;99.90
18141;DHT22;9196;49.194;12.526;2023-08-01T13:31:53;19.10;99.90
18141;DHT22;9196;49.194;12.526;2023-08-01T13:34:21;19.20;99.90
18141;DHT22;9196;49.194;12.526;2023-08-01T13:36:49;19.10;99.90
18141;DHT22;9196;49.194;12.526;2023-08-01T13:39:16;19.10;99.90
18141;DHT22;9196;49.194;12.526;2023-08-01T13:41:43;19.20;99.90
18141;DHT22;9196;49.194;12.526;2023-08-01T13:44:09;19.40;99.90
18141;DHT22;9196;49.194;12.526;2023-08-01T13:46:36;19.40;99.90
18141;DHT22;9196;49.194;12.526;2023-08-01T13:49:03;19.50;99.90
18141;DHT22;9196;49.194;12.526;2023-08-01T13:51:33;19.60;99.90
18141;DHT22;9196;49.194;12.526;2023-08-01T13:54:00;19.70;99.90
18141;DHT22;9196;49.194;12.526;2023-08-01T13:56:27;19.90;99.90
18141;DHT22;9196;49.194;12.526;2023-08-01T13:58:54;20.20;99.90
18141;DHT22;9196;49.194;12.526;2023-08-01T14:01:20;20.50;99.90
18141;DHT22;9196;49.194;12.526;2023-08-01T14:03:47;20.50;99.90
18141;DHT22;9196;49.194;12.526;2023-08-01T14:06:14;20.20;99.90
18141;DHT22;9196;49.194;12.526;2023-08-01T14:08:42;20.00;99.90
18141;DHT22;9196;49.194;12.526;2023-08-01T14:11:10;20.20;99.90
18141;DHT22;9196;49.194;12.526;2023-08-01T14:13:36;20.30;99.90
18141;DHT22;9196;49.194;12.526;2023-08-01T14:16:04;20.30;99.90
18141;DHT22;9196;49.194;12.526;2023-08-01T14:18:30;20.50;99.90
18141;DHT22;9196;49.194;12.526;2023-08-01T14:20:57;20.80;99.90
18141;DHT22;9196;49.194;12.526;2023-08-01T14:23:24;21.30;99.90
18141;DHT22;9196;49.194;12.526;2023-08-01T14:25:52;21.50;99.90
18141;DHT22;9196;49.194;12.526;2023-08-01T14:28:19;21.50;99.90
18141;DHT22;9196;49.194;12.526;2023-08-01T14:30:46;21.60;99.90
18141;DHT22;9196;49.194;12.526;2023-08-01T14:33:12;21.40;99.90
18141;DHT22;9196;49.194;12.526;2023-08-01T14:35:40;21.60;99.90
18141;DHT22;9196;49.194;12.526;2023-08-01T14:38:08;21.60;99.90
18141;DHT22;9196;49.194;12.526;2023-08-01T14:40:35;21.20;99.90
18141;DHT22;9196;49.194;12.526;2023-08-01T14:43:03;21.00;99.90
18141;DHT22;9196;49.194;12.526;2023-08-01T14:45:30;21.00;99.90
18141;DHT22;9196;49.194;12.526;2023-08-01T14:47:56;20.90;99.90
18141;DHT22;9196;49.194;12.526;2023-08-01T14:50:23;20.60;99.90
18141;DHT22;9196;49.194;12.526;2023-08-01T14:52:50;20.60;99.90
18141;DHT22;9196;49.194;12.526;2023-08-01T14:55:18;20.80;99.90
18141;DHT22;9196;49.194;12.526;2023-08-01T14:57:44;21.10;99.90
18141;DHT22;9196;49.194;12.526;2023-08-01T15:00:14;21.00;99.90
18141;DHT22;9196;49.194;12.526;2023-08-01T15:02:41;20.80;99.90
18141;DHT22;9196;49.194;12.526;2023-08-01T15:05:08;21.00;99.90
18141;DHT22;9196;49.194;12.526;2023-08-01T15:07:35;21.20;99.90
18141;DHT22;9196;49.194;12.526;2023-08-01T15:10:02;21.20;99.90
18141;DHT22;9196;49.194;12.526;2023-08-01T15:12:29;21.30;99.90
18141;DHT22;9196;49.194;12.526;2023-08-01T15:14:56;21.30;99.90
18141;DHT22;9196;49.194;12.526;2023-08-01T15:17:24;21.60;99.90
18141;DHT22;9196;49.194;12.526;2023-08-01T15:19:51;21.90;99.90
18141;DHT22;9196;49.194;12.526;2023-08-01T15:22:19;22.10;99.90
18141;DHT22;9196;49.194;12.526;2023-08-01T15:24:46;22.40;99.90
18141;DHT22;9196;49.194;12.526;2023-08-01T15:27:13;22.30;99.90
18141;DHT22;9196;49.194;12.526;2023-08-01T15:29:40;22.10;99.90
18141;DHT22;9196;49.194;12.526;2023-08-01T15:32:07;22.00;99.90